Time;durP1;ratioP1;P1;durP2;ratioP2;P2;SDS_P1;SDS_P2;PMS_P1;PMS_P2;Temp;Humidity;BMP_temperature;BMP_pressure;BME280_temperature;BME280_humidity;BME280_pressure;Samples;Min_cycle;Max_cycle;Signal;HPM_P1;HPM_P2
2022/06/19 00:01:08;;;;;;;6.13;3.60;;;13.10;99.90;;;;;;5029150;28;20030;-69
2022/06/19 00:03:41;;;;;;;8.85;3.10;;;13.20;99.90;;;;;;5026843;28;20021;-70
2022/06/19 00:06:09;;;;;;;8.05;2.78;;;13.40;99.90;;;;;;5029338;28;20033;-69
2022/06/19 00:08:36;;;;;;;3.83;3.25;;;13.50;99.90;;;;;;5025571;28;20029;-70
2022/06/19 00:11:06;;;;;;;6.10;2.45;;;13.60;99.90;;;;;;5047291;28;20499;-70
2022/06/19 00:13:33;;;;;;;8.00;3.53;;;13.70;99.90;;;;;;5030663;28;20051;-68
2022/06/19 00:16:01;;;;;;;5.50;2.70;;;13.80;99.90;;;;;;5034211;28;20032;-71
2022/06/19 00:18:28;;;;;;;6.93;2.72;;;13.90;99.90;;;;;;5034867;28;20049;-72
2022/06/19 00:20:56;;;;;;;4.28;2.47;;;13.90;99.90;;;;;;5033260;28;20033;-69
2022/06/19 00:23:23;;;;;;;5.00;2.60;;;13.90;99.90;;;;;;5032869;28;20017;-70
2022/06/19 00:25:51;;;;;;;3.30;2.33;;;14.00;99.90;;;;;;5033203;28;20029;-71
2022/06/19 00:28:18;;;;;;;5.25;2.80;;;14.00;99.90;;;;;;5034008;28;20021;-70
2022/06/19 00:30:45;;;;;;;6.47;2.42;;;14.10;99.90;;;;;;5046983;28;20087;-69
2022/06/19 00:33:13;;;;;;;6.68;2.80;;;14.20;99.90;;;;;;5042752;28;20091;-70
2022/06/19 00:35:40;;;;;;;6.97;3.60;;;14.40;99.90;;;;;;5032949;28;20404;-71
2022/06/19 00:38:08;;;;;;;7.93;2.25;;;14.40;99.90;;;;;;5033895;28;20029;-69
2022/06/19 00:40:35;;;;;;;6.00;2.22;;;14.60;99.90;;;;;;5035739;28;20084;-72
2022/06/19 00:43:03;;;;;;;10.23;2.83;;;14.70;99.90;;;;;;5031301;28;20531;-69
2022/06/19 00:45:35;;;;;;;4.30;2.15;;;14.70;99.90;;;;;;5033608;28;20026;-69
2022/06/19 00:48:06;;;;;;;;;;;14.80;99.90;;;;;;5028137;28;20084;-72
2022/06/19 00:50:35;;;;;;;4.25;2.55;;;14.80;99.90;;;;;;5032730;28;19905;-70
2022/06/19 00:53:06;;;;;;;6.78;3.03;;;14.80;99.90;;;;;;5035303;28;20044;-72
2022/06/19 00:55:45;;;;;;;8.95;2.45;;;14.90;99.90;;;;;;5032179;28;20041;-70
2022/06/19 00:58:19;;;;;;;5.70;2.13;;;15.00;99.90;;;;;;5040935;28;20048;-69
2022/06/19 01:00:57;;;;;;;5.35;2.00;;;15.10;99.90;;;;;;5050725;28;20017;-72
2022/06/19 01:04:05;;;;;;;5.93;2.38;;;15.20;99.90;;;;;;5038565;28;20486;-74
2022/06/19 01:06:33;;;;;;;6.53;2.38;;;15.30;99.90;;;;;;4989939;28;20087;-73
2022/06/19 01:09:00;;;;;;;5.35;2.35;;;15.50;99.90;;;;;;5025767;28;20034;-69
2022/06/19 01:11:34;;;;;;;6.25;2.28;;;15.70;99.90;;;;;;5032596;28;20413;-69
2022/06/19 01:14:03;;;;;;;4.70;2.55;;;15.80;99.90;;;;;;5040550;28;20070;-69
2022/06/19 01:16:31;;;;;;;5.45;2.15;;;16.00;99.90;;;;;;5051077;28;20450;-70
2022/06/19 01:19:00;;;;;;;5.05;2.22;;;16.10;99.90;;;;;;5067840;28;20037;-69
2022/06/19 01:21:46;;;;;;;6.07;2.08;;;16.50;99.90;;;;;;5053026;28;20068;-69
2022/06/19 01:24:25;;;;;;;6.80;2.25;;;16.60;99.90;;;;;;5053569;28;20469;-68
2022/06/19 01:26:59;;;;;;;3.45;1.77;;;16.80;99.90;;;;;;5053194;28;20033;-69
2022/06/19 01:29:29;;;;;;;9.02;2.22;;;16.80;99.90;;;;;;5053892;28;20019;-70
2022/06/19 01:32:00;;;;;;;5.43;2.00;;;16.80;99.90;;;;;;5052453;28;20049;-69
2022/06/19 01:34:35;;;;;;;6.55;2.72;;;16.80;99.90;;;;;;5052529;28;20035;-69
2022/06/19 01:37:41;;;;;;;5.25;2.25;;;16.80;99.90;;;;;;5053392;28;20087;-70
2022/06/19 01:40:18;;;;;;;6.55;2.35;;;17.00;99.90;;;;;;5011690;28;20045;-70
2022/06/19 01:42:46;;;;;;;8.27;3.28;;;17.20;99.90;;;;;;5000637;28;20539;-70
2022/06/19 01:45:13;;;;;;;5.05;2.13;;;17.30;99.90;;;;;;5018365;28;20053;-70
2022/06/19 01:47:41;;;;;;;4.90;1.98;;;17.60;99.90;;;;;;5053101;28;20378;-69
2022/06/19 01:50:15;;;;;;;5.63;1.80;;;17.80;99.90;;;;;;5052836;28;20044;-70
2022/06/19 01:52:43;;;;;;;9.05;2.95;;;17.90;99.90;;;;;;5052719;28;20397;-71
2022/06/19 01:55:19;;;;;;;8.40;4.07;;;18.00;99.90;;;;;;5052949;28;20080;-69
2022/06/19 01:57:52;;;;;;;9.68;2.28;;;18.10;99.90;;;;;;5053105;28;20428;-71
2022/06/19 02:00:23;;;;;;;9.18;3.35;;;18.10;99.90;;;;;;5053316;28;20017;-70
2022/06/19 02:03:19;;;;;;;7.47;2.00;;;18.10;99.90;;;;;;5053134;28;20373;-71
2022/06/19 02:05:47;;;;;;;9.23;2.38;;;18.00;99.90;;;;;;5051120;28;20045;-69
2022/06/19 02:08:16;;;;;;;8.18;1.48;;;18.10;99.90;;;;;;5053393;28;20079;-69
2022/06/19 02:10:45;;;;;;;6.38;3.65;;;18.20;99.90;;;;;;5052548;28;20017;-69
2022/06/19 02:13:16;;;;;;;8.32;3.03;;;18.20;99.90;;;;;;5052343;28;20021;-69
2022/06/19 02:15:45;;;;;;;8.32;3.15;;;18.10;99.90;;;;;;5052774;28;20025;-69
2022/06/19 02:18:22;;;;;;;7.20;1.90;;;18.30;99.90;;;;;;5052601;28;20541;-69
2022/06/19 02:20:51;;;;;;;6.68;1.77;;;18.40;99.90;;;;;;5052536;28;20033;-71
2022/06/19 02:23:32;;;;;;;9.00;3.28;;;18.50;99.90;;;;;;5052491;28;20021;-69
2022/06/19 02:26:00;;;;;;;5.00;2.30;;;18.60;99.90;;;;;;5012762;28;20037;-69
2022/06/19 02:28:29;;;;;;;8.60;3.35;;;18.80;99.90;;;;;;5012936;28;20486;-70
2022/06/19 02:30:56;;;;;;;5.22;2.17;;;18.80;99.90;;;;;;5012856;28;20021;-72
2022/06/19 02:33:30;;;;;;;6.97;2.78;;;19.00;99.70;;;;;;5026209;28;20104;-69
2022/06/19 02:35:58;;;;;;;6.80;4.32;;;19.30;99.70;;;;;;5052163;28;20020;-70
2022/06/19 02:38:25;;;;;;;11.18;3.63;;;19.40;99.30;;;;;;5051811;28;20120;-69
2022/06/19 02:41:16;;;;;;;6.57;2.50;;;19.30;99.20;;;;;;5052536;28;20021;-71
2022/06/19 02:43:44;;;;;;;5.53;2.42;;;19.40;99.20;;;;;;5052481;28;20021;-69
2022/06/19 02:46:11;;;;;;;9.27;2.90;;;19.70;99.00;;;;;;5051809;28;20120;-69
2022/06/19 02:48:38;;;;;;;9.13;3.58;;;20.00;98.50;;;;;;5052211;28;20465;-69
2022/06/19 02:51:06;;;;;;;4.50;1.80;;;20.00;98.10;;;;;;5052206;28;20039;-70
2022/06/19 02:53:33;;;;;;;10.23;4.53;;;19.80;97.90;;;;;;5052313;28;20104;-69
2022/06/19 02:56:01;;;;;;;9.55;3.38;;;19.50;98.20;;;;;;5052112;28;20090;-69
2022/06/19 02:58:28;;;;;;;10.60;5.85;;;19.80;98.50;;;;;;5052357;28;20025;-70
2022/06/19 03:00:55;;;;;;;8.35;4.55;;;20.00;98.00;;;;;;5052530;28;20017;-69
2022/06/19 03:03:27;;;;;;;7.32;3.97;;;20.10;98.00;;;;;;5050804;28;20025;-69
2022/06/19 03:05:55;;;;;;;5.50;1.83;;;20.00;98.00;;;;;;5052268;28;20540;-69
2022/06/19 03:08:22;;;;;;;8.05;2.55;;;19.90;98.20;;;;;;5051780;28;20056;-70
2022/06/19 03:10:50;;;;;;;6.22;2.20;;;19.90;98.20;;;;;;5051881;28;20083;-71
2022/06/19 03:13:21;;;;;;;8.63;3.00;;;19.70;98.30;;;;;;5051725;28;20491;-71
2022/06/19 03:15:59;;;;;;;7.30;2.58;;;19.60;98.30;;;;;;5067143;28;20032;-71
2022/06/19 03:18:26;;;;;;;4.35;2.10;;;19.40;98.50;;;;;;5051896;28;20025;-69
2022/06/19 03:20:53;;;;;;;7.70;2.30;;;19.20;99.10;;;;;;5051441;28;20057;-70
2022/06/19 03:23:21;;;;;;;6.07;1.63;;;19.40;99.30;;;;;;5050817;28;20059;-69
2022/06/19 03:25:48;;;;;;;7.60;1.77;;;19.80;98.70;;;;;;5011793;28;20030;-69
2022/06/19 03:28:15;;;;;;;5.82;1.52;;;20.20;98.30;;;;;;5030326;28;20017;-69
2022/06/19 03:30:43;;;;;;;6.00;2.30;;;20.70;97.20;;;;;;5051489;28;20024;-70
2022/06/19 03:33:10;;;;;;;8.63;3.10;;;21.10;96.50;;;;;;5051776;28;20017;-70
2022/06/19 03:35:37;;;;;;;11.30;2.65;;;21.60;95.90;;;;;;5051362;28;20021;-69
2022/06/19 03:38:05;;;;;;;8.70;2.22;;;22.20;94.80;;;;;;5050614;28;20079;-68
2022/06/19 03:40:32;;;;;;;6.90;2.28;;;22.70;94.50;;;;;;5042682;28;20492;-70
2022/06/19 03:42:59;;;;;;;6.45;3.03;;;23.20;93.30;;;;;;5050995;28;20036;-69
2022/06/19 03:45:26;;;;;;;8.95;2.55;;;23.70;92.50;;;;;;5050846;28;20032;-71
2022/06/19 03:47:54;;;;;;;8.38;2.60;;;24.20;91.90;;;;;;5050516;28;20032;-70
2022/06/19 03:50:21;;;;;;;5.55;4.43;;;24.40;91.30;;;;;;5051077;28;20059;-69
2022/06/19 03:52:48;;;;;;;6.65;3.28;;;24.40;90.90;;;;;;5051346;28;20039;-70
2022/06/19 03:55:15;;;;;;;10.25;5.10;;;24.40;90.60;;;;;;5051251;28;20045;-70
2022/06/19 03:57:43;;;;;;;7.13;2.50;;;24.30;90.90;;;;;;5050148;28;20017;-70
2022/06/19 04:00:15;;;;;;;8.05;2.70;;;24.10;90.60;;;;;;5051629;28;20025;-69
2022/06/19 04:02:44;;;;;;;7.32;2.13;;;23.90;91.20;;;;;;5050794;28;20124;-70
2022/06/19 04:05:12;;;;;;;6.18;1.95;;;23.50;91.50;;;;;;5050904;28;20063;-69
2022/06/19 04:07:50;;;;;;;6.35;1.75;;;22.70;92.30;;;;;;5050108;28;20112;-69
2022/06/19 04:10:19;;;;;;;9.45;2.15;;;22.00;93.40;;;;;;5051045;28;20025;-68
2022/06/19 04:12:46;;;;;;;7.28;2.70;;;21.30;94.10;;;;;;5051504;28;20105;-70
2022/06/19 04:15:14;;;;;;;6.75;2.42;;;20.80;95.10;;;;;;5050070;28;20489;-71
2022/06/19 04:17:42;;;;;;;9.95;2.58;;;20.40;95.80;;;;;;5050767;28;20021;-69
2022/06/19 04:20:11;;;;;;;6.03;1.50;;;20.10;96.40;;;;;;5050843;28;20028;-70
2022/06/19 04:22:39;;;;;;;10.00;2.72;;;19.70;97.10;;;;;;5051515;28;21071;-70
2022/06/19 04:25:13;;;;;;;6.25;2.70;;;19.50;97.50;;;;;;5064655;28;20033;-69
2022/06/19 04:27:43;;;;;;;11.90;4.13;;;19.40;97.70;;;;;;5033316;28;20083;-71
2022/06/19 04:30:10;;;;;;;8.82;3.33;;;19.30;97.80;;;;;;5029937;28;20546;-71
2022/06/19 04:32:38;;;;;;;8.30;2.97;;;19.20;98.20;;;;;;5030260;28;20104;-72
2022/06/19 04:35:05;;;;;;;9.40;3.83;;;19.20;98.40;;;;;;5039361;28;20048;-73
2022/06/19 04:37:33;;;;;;;6.70;2.15;;;19.10;98.50;;;;;;5046323;28;20446;-71
2022/06/19 04:40:00;;;;;;;8.10;2.13;;;19.10;98.70;;;;;;5039186;28;20037;-71
2022/06/19 04:42:27;;;;;;;8.48;2.70;;;19.10;98.80;;;;;;5030136;28;20481;-71
2022/06/19 04:44:55;;;;;;;9.27;3.22;;;19.10;98.70;;;;;;5030154;28;20072;-71
2022/06/19 04:47:22;;;;;;;6.47;2.90;;;19.10;98.70;;;;;;5031848;28;20036;-71
2022/06/19 04:49:49;;;;;;;8.60;2.40;;;19.00;98.70;;;;;;5030099;28;20535;-69
2022/06/19 04:52:16;;;;;;;8.75;2.47;;;19.00;98.70;;;;;;5030424;28;20363;-70
2022/06/19 04:54:45;;;;;;;6.30;2.05;;;18.90;98.80;;;;;;5027761;28;20125;-70
2022/06/19 04:57:13;;;;;;;9.65;2.95;;;18.70;98.70;;;;;;5028591;28;20025;-71
2022/06/19 04:59:41;;;;;;;7.20;2.55;;;18.70;99.10;;;;;;5029142;28;20370;-71
2022/06/19 05:02:11;;;;;;;5.65;2.50;;;18.60;99.10;;;;;;5033810;28;20025;-68
2022/06/19 05:04:38;;;;;;;8.05;2.58;;;18.50;99.30;;;;;;5033463;28;20056;-71
2022/06/19 05:07:07;;;;;;;8.10;2.22;;;18.50;99.30;;;;;;5049513;28;20059;-69
2022/06/19 05:09:34;;;;;;;6.75;3.15;;;18.50;99.40;;;;;;5046701;28;20057;-71
2022/06/19 05:12:01;;;;;;;12.43;2.88;;;18.60;99.60;;;;;;5033556;28;20056;-71
2022/06/19 05:14:29;;;;;;;8.60;2.53;;;18.60;99.40;;;;;;5035486;28;20032;-72
2022/06/19 05:16:56;;;;;;;8.50;2.65;;;18.70;99.40;;;;;;5031619;28;20018;-70
2022/06/19 05:19:23;;;;;;;8.18;2.45;;;18.60;99.30;;;;;;5030087;28;20017;-70
2022/06/19 05:21:50;;;;;;;9.02;2.50;;;18.60;99.50;;;;;;5030620;28;20112;-72
2022/06/19 05:24:18;;;;;;;6.60;2.97;;;18.60;99.50;;;;;;5032126;28;20017;-72
2022/06/19 05:26:45;;;;;;;6.72;2.10;;;18.60;99.50;;;;;;5044363;28;20053;-70
2022/06/19 05:29:12;;;;;;;12.55;3.28;;;18.60;99.70;;;;;;5032939;28;20040;-69
2022/06/19 05:31:40;;;;;;;5.80;2.45;;;18.60;99.60;;;;;;5032407;28;20041;-72
2022/06/19 05:34:07;;;;;;;9.25;2.10;;;18.60;99.70;;;;;;5031570;28;20044;-70
2022/06/19 05:36:34;;;;;;;11.35;2.67;;;18.60;99.50;;;;;;5031079;28;20413;-69
2022/06/19 05:39:02;;;;;;;5.15;1.80;;;18.70;99.60;;;;;;5032269;28;20026;-68
2022/06/19 05:41:30;;;;;;;9.02;2.20;;;18.80;99.20;;;;;;5032401;28;20033;-67
2022/06/19 05:43:57;;;;;;;6.53;1.80;;;18.90;99.10;;;;;;5032092;28;20680;-71
2022/06/19 05:46:25;;;;;;;7.05;1.70;;;18.80;99.20;;;;;;5031440;28;20041;-72
2022/06/19 05:48:52;;;;;;;5.45;1.25;;;18.80;99.40;;;;;;5033629;28;20018;-72
2022/06/19 05:51:22;;;;;;;6.95;2.50;;;18.80;99.30;;;;;;5031239;28;20052;-68
2022/06/19 05:53:53;;;;;;;9.30;2.92;;;18.70;99.40;;;;;;5029771;28;20037;-72
2022/06/19 05:56:20;;;;;;;8.43;3.80;;;18.70;99.50;;;;;;5045619;28;20065;-70
2022/06/19 05:58:48;;;;;;;6.43;2.00;;;18.80;99.40;;;;;;5031390;28;20016;-70
2022/06/19 06:01:16;;;;;;;6.07;2.28;;;18.80;99.40;;;;;;5030912;28;20474;-70
2022/06/19 06:03:45;;;;;;;10.48;3.40;;;18.80;99.30;;;;;;5033807;28;20021;-70
2022/06/19 06:06:20;;;;;;;3.88;1.88;;;18.90;99.30;;;;;;5030725;28;20116;-71
2022/06/19 06:08:48;;;;;;;6.53;1.70;;;19.00;99.30;;;;;;5027175;28;20374;-72
2022/06/19 06:11:16;;;;;;;14.57;2.08;;;19.10;99.20;;;;;;5046314;28;20033;-70
2022/06/19 06:13:44;;;;;;;5.70;1.65;;;19.00;99.10;;;;;;5030866;28;20060;-71
2022/06/19 06:16:16;;;;;;;5.45;2.72;;;18.80;99.30;;;;;;5029636;28;20025;-72
2022/06/19 06:18:43;;;;;;;;;;;18.70;99.70;;;;;;5032128;28;20021;-70
2022/06/19 06:21:20;;;;;;;8.50;4.93;;;18.60;99.90;;;;;;5031820;28;19955;-71
2022/06/19 06:23:47;;;;;;;7.22;3.53;;;18.40;99.90;;;;;;5038022;28;20028;-70
2022/06/19 06:26:18;;;;;;;7.80;3.17;;;18.20;99.90;;;;;;5037517;28;20030;-72
2022/06/19 06:28:48;;;;;;;11.70;3.03;;;18.00;99.90;;;;;;5041756;28;20435;-69
2022/06/19 06:31:17;;;;;;;8.98;2.42;;;17.70;99.90;;;;;;5032703;28;20025;-69
2022/06/19 06:33:46;;;;;;;9.20;2.92;;;17.60;99.90;;;;;;5046847;28;20017;-70
2022/06/19 06:36:14;;;;;;;7.13;2.20;;;17.40;99.90;;;;;;5051974;28;20036;-70
2022/06/19 06:38:41;;;;;;;6.72;2.83;;;17.30;99.90;;;;;;5030675;28;20470;-69
2022/06/19 06:41:11;;;;;;;7.97;3.53;;;17.10;99.90;;;;;;5012186;28;20030;-71
2022/06/19 06:43:43;;;;;;;10.27;3.88;;;17.00;99.90;;;;;;5044994;28;20036;-72
2022/06/19 06:46:25;;;;;;;11.02;2.67;;;16.90;99.90;;;;;;5036652;28;20043;-72
2022/06/19 06:48:59;;;;;;;12.90;3.63;;;16.80;99.90;;;;;;5031836;28;20521;-69
2022/06/19 06:51:28;;;;;;;6.25;3.40;;;16.70;99.90;;;;;;5029350;28;20382;-72
2022/06/19 06:53:56;;;;;;;9.00;3.80;;;16.60;99.90;;;;;;5033525;28;20030;-73
2022/06/19 06:56:24;;;;;;;9.63;3.40;;;16.70;99.90;;;;;;5029857;28;20067;-71
2022/06/19 06:58:51;;;;;;;9.90;2.88;;;16.60;99.90;;;;;;5034960;28;20037;-71
2022/06/19 07:01:25;;;;;;;10.95;3.65;;;16.50;99.90;;;;;;5031144;28;20025;-71
2022/06/19 07:03:56;;;;;;;8.60;2.58;;;16.50;99.90;;;;;;5030600;28;20041;-71
2022/06/19 07:06:25;;;;;;;6.38;2.60;;;16.50;99.90;;;;;;5044800;28;20044;-70
2022/06/19 07:08:53;;;;;;;8.23;1.63;;;16.50;99.90;;;;;;5029998;28;20025;-69
2022/06/19 07:11:26;;;;;;;3.72;1.15;;;16.40;99.90;;;;;;5043775;28;20158;-71
2022/06/19 07:13:55;;;;;;;4.00;0.90;;;16.30;99.90;;;;;;5050603;28;20100;-72
2022/06/19 07:16:22;;;;;;;5.53;1.80;;;16.20;99.90;;;;;;5038585;28;20496;-71
2022/06/19 07:18:50;;;;;;;6.00;1.63;;;16.10;99.90;;;;;;5049644;28;20036;-73
2022/06/19 07:21:17;;;;;;;4.70;1.77;;;16.00;99.90;;;;;;5029987;28;20022;-76
2022/06/19 07:23:44;;;;;;;5.72;2.80;;;15.90;99.90;;;;;;5028084;28;20478;-72
2022/06/19 07:26:14;;;;;;;10.77;3.30;;;15.70;99.90;;;;;;5029610;28;20034;-71
2022/06/19 07:28:44;;;;;;;7.30;3.10;;;15.50;99.90;;;;;;5030360;28;20014;-69
2022/06/19 07:31:14;;;;;;;3.80;2.60;;;15.30;99.90;;;;;;5028034;28;20025;-70
2022/06/19 07:33:42;;;;;;;5.63;2.85;;;15.20;99.90;;;;;;5029672;28;20564;-69
2022/06/19 07:36:16;;;;;;;3.95;2.00;;;15.10;99.90;;;;;;5030658;28;20462;-70
2022/06/19 07:38:43;;;;;;;10.32;4.47;;;15.10;99.90;;;;;;5035583;28;20013;-70
2022/06/19 07:41:11;;;;;;;9.85;5.20;;;15.00;99.90;;;;;;5050183;28;20082;-70
2022/06/19 07:43:39;;;;;;;8.75;5.90;;;15.00;99.90;;;;;;5032566;28;20063;-71
2022/06/19 07:46:07;;;;;;;10.50;6.65;;;15.00;99.90;;;;;;5030101;28;20033;-68
2022/06/19 07:51:19;;;;;;;8.45;4.35;;;15.00;99.90;;;;;;5049950;28;20116;-67
2022/06/19 07:53:47;;;;;;;9.05;3.33;;;15.00;99.90;;;;;;5050099;28;20041;-71
2022/06/19 07:56:14;;;;;;;6.82;2.38;;;15.00;99.90;;;;;;5050880;28;20047;-67
2022/06/19 07:58:41;;;;;;;8.45;2.88;;;14.90;99.90;;;;;;5050872;28;20104;-68
2022/06/19 08:01:08;;;;;;;8.32;3.15;;;14.80;99.90;;;;;;5051019;28;20082;-68
2022/06/19 08:03:36;;;;;;;8.20;2.58;;;14.80;99.90;;;;;;5049531;28;20028;-67
2022/06/19 08:06:03;;;;;;;6.95;2.83;;;14.80;99.90;;;;;;5048462;28;20058;-69
2022/06/19 08:08:35;;;;;;;5.82;2.08;;;14.80;99.90;;;;;;5050133;28;20104;-68
2022/06/19 08:11:04;;;;;;;11.05;2.75;;;14.70;99.90;;;;;;5048902;28;20033;-69
2022/06/19 08:13:33;;;;;;;8.20;4.03;;;14.80;99.90;;;;;;5023951;28;20050;-73
2022/06/19 08:16:04;;;;;;;8.98;3.45;;;14.80;99.90;;;;;;5028821;28;20144;-74
2022/06/19 08:18:33;;;;;;;6.28;2.17;;;14.70;99.90;;;;;;5027249;28;20017;-71
2022/06/19 08:21:01;;;;;;;5.50;2.30;;;14.70;99.90;;;;;;5031288;28;20025;-71
2022/06/19 08:23:29;;;;;;;6.82;2.85;;;14.70;99.90;;;;;;5062861;28;20349;-71
2022/06/19 08:25:56;;;;;;;7.35;3.65;;;14.70;99.90;;;;;;5034904;28;20036;-73
2022/06/19 08:31:09;;;;;;;8.85;4.07;;;14.70;99.90;;;;;;5029684;28;20052;-68
2022/06/19 08:33:36;;;;;;;7.70;3.63;;;14.70;99.90;;;;;;5034052;28;20025;-69
2022/06/19 08:36:08;;;;;;;12.00;4.28;;;14.70;99.90;;;;;;5053262;28;20071;-69
2022/06/19 08:38:40;;;;;;;11.55;5.60;;;14.70;99.90;;;;;;5051530;28;20389;-70
2022/06/19 08:41:13;;;;;;;10.75;5.40;;;14.70;99.90;;;;;;5054058;28;20025;-70
2022/06/19 08:43:43;;;;;;;18.98;16.02;;;14.70;99.90;;;;;;5053317;28;20104;-71
2022/06/19 08:46:34;;;;;;;17.83;9.40;;;14.70;99.90;;;;;;5050837;28;20504;-71
2022/06/19 08:49:14;;;;;;;10.30;4.60;;;14.60;99.90;;;;;;5051461;28;20546;-69
2022/06/19 08:51:55;;;;;;;13.27;9.20;;;14.60;99.90;;;;;;5052766;28;20100;-69
2022/06/19 08:54:37;;;;;;;15.63;10.02;;;14.60;99.90;;;;;;5022661;28;20064;-66
2022/06/19 08:57:14;;;;;;;11.85;9.65;;;14.60;99.90;;;;;;5052513;28;20072;-72
2022/06/19 08:59:41;;;;;;;16.80;9.82;;;14.60;99.90;;;;;;5023050;28;20599;-73
2022/06/19 09:02:27;;;;;;;13.38;7.60;;;14.50;99.90;;;;;;5051994;28;20035;-69
2022/06/19 09:05:37;;;;;;;10.40;6.63;;;14.50;99.90;;;;;;5052506;28;20090;-69
2022/06/19 09:08:31;;;;;;;13.93;7.00;;;14.50;99.90;;;;;;5053080;28;20531;-68
2022/06/19 09:11:01;;;;;;;10.43;5.43;;;14.40;99.90;;;;;;5051369;28;20017;-71
2022/06/19 09:13:47;;;;;;;8.68;5.03;;;14.40;99.90;;;;;;5052857;28;20473;-71
2022/06/19 09:16:27;;;;;;;8.85;4.90;;;14.30;99.90;;;;;;5052495;28;20104;-72
2022/06/19 09:19:05;;;;;;;10.30;4.40;;;14.20;99.90;;;;;;5053696;28;20032;-74
2022/06/19 09:21:45;;;;;;;9.18;3.55;;;14.20;99.90;;;;;;5052984;28;20028;-70
2022/06/19 09:24:40;;;;;;;13.10;9.27;;;14.20;99.90;;;;;;5051924;28;20023;-71
2022/06/19 09:27:11;;;;;;;31.73;26.75;;;14.20;99.90;;;;;;5051019;28;20052;-70
2022/06/19 09:30:03;;;;;;;23.67;17.20;;;14.20;99.90;;;;;;5048654;28;20033;-71
2022/06/19 09:32:55;;;;;;;9.60;6.40;;;14.20;99.90;;;;;;5053310;28;20108;-72
2022/06/19 09:35:48;;;;;;;8.75;4.15;;;14.10;99.90;;;;;;5051671;28;20096;-71
2022/06/19 09:38:33;;;;;;;12.93;5.65;;;14.20;99.90;;;;;;5049389;28;20029;-73
2022/06/19 09:41:06;;;;;;;11.88;5.90;;;14.20;99.90;;;;;;5052568;28;20044;-72
2022/06/19 09:43:42;;;;;;;10.95;6.25;;;14.20;99.90;;;;;;5051941;28;20047;-69
2022/06/19 09:46:29;;;;;;;14.25;11.13;;;14.30;99.90;;;;;;5052360;28;20481;-68
2022/06/19 09:49:00;;;;;;;12.20;5.60;;;14.30;99.90;;;;;;5052397;28;20024;-74
2022/06/19 09:51:37;;;;;;;9.20;3.47;;;14.20;99.90;;;;;;5034458;28;20033;-70
2022/06/19 09:54:27;;;;;;;17.70;11.80;;;14.20;99.90;;;;;;5032599;28;20087;-67
2022/06/19 09:57:04;;;;;;;12.40;6.57;;;14.20;99.90;;;;;;5033705;28;20101;-68
2022/06/19 09:59:44;;;;;;;7.93;5.20;;;14.20;99.90;;;;;;5052043;28;20520;-68
2022/06/19 10:02:42;;;;;;;8.18;3.20;;;14.10;99.90;;;;;;5053388;28;20033;-68
2022/06/19 10:05:58;;;;;;;9.23;3.33;;;14.10;99.90;;;;;;5038183;28;20048;-69
2022/06/19 10:08:29;;;;;;;10.88;3.05;;;14.10;99.90;;;;;;5047774;28;20045;-69
2022/06/19 10:11:14;;;;;;;6.53;3.72;;;14.00;99.90;;;;;;5045347;28;20513;-68
2022/06/19 10:14:00;;;;;;;9.63;4.15;;;14.00;99.90;;;;;;5051634;28;20466;-70
2022/06/19 10:16:49;;;;;;;12.73;7.47;;;14.00;99.90;;;;;;5031564;28;20071;-68
2022/06/19 10:19:24;;;;;;;7.22;3.40;;;14.00;99.90;;;;;;5029436;28;20029;-67
2022/06/19 10:22:16;;;;;;;8.38;4.10;;;13.90;99.90;;;;;;5030907;28;20018;-70
2022/06/19 10:25:02;;;;;;;9.10;5.55;;;13.90;99.90;;;;;;5031253;28;20091;-69
2022/06/19 10:27:47;;;;;;;10.98;4.88;;;13.90;99.90;;;;;;5031032;28;20021;-68
2022/06/19 10:30:28;;;;;;;15.18;6.28;;;13.80;99.90;;;;;;5029855;28;20039;-68
2022/06/19 10:33:16;;;;;;;10.98;8.70;;;13.80;99.90;;;;;;5030606;28;20026;-69
2022/06/19 10:35:52;;;;;;;29.98;24.38;;;13.80;99.90;;;;;;5029321;28;20017;-68
2022/06/19 10:38:56;;;;;;;28.55;21.25;;;13.80;99.90;;;;;;5030750;28;20026;-71
2022/06/19 10:44:44;;;;;;;19.85;11.52;;;13.70;99.90;;;;;;5030264;28;20083;-69
2022/06/19 10:47:33;;;;;;;12.88;9.68;;;13.60;99.90;;;;;;5014582;28;20041;-70
2022/06/19 10:50:18;;;;;;;13.70;10.07;;;13.60;99.90;;;;;;5028575;28;20112;-70
2022/06/19 10:52:56;;;;;;;15.25;10.68;;;13.60;99.90;;;;;;5030544;28;20010;-70
2022/06/19 10:55:51;;;;;;;10.20;7.50;;;13.60;99.90;;;;;;5028761;28;20072;-69
2022/06/19 10:58:28;;;;;;;16.10;10.30;;;13.60;99.90;;;;;;5029337;28;20479;-71
2022/06/19 11:01:03;;;;;;;16.77;12.50;;;13.60;99.90;;;;;;5028207;28;20025;-70
2022/06/19 11:06:40;;;;;;;17.73;9.82;;;13.70;99.90;;;;;;5028758;28;20080;-68
2022/06/19 11:09:24;;;;;;;12.75;7.95;;;13.70;99.90;;;;;;5028026;28;20108;-70
2022/06/19 11:11:55;;;;;;;11.52;6.60;;;13.70;99.90;;;;;;5025980;28;20028;-70
2022/06/19 11:14:43;;;;;;;10.85;6.88;;;13.60;99.90;;;;;;5027725;28;20030;-71
2022/06/19 11:17:34;;;;;;;9.57;6.45;;;13.60;99.90;;;;;;5027454;28;20032;-69
2022/06/19 11:20:26;;;;;;;13.27;6.72;;;13.60;99.90;;;;;;5026636;28;20068;-69
2022/06/19 11:23:04;;;;;;;10.95;7.90;;;13.60;99.90;;;;;;5030084;28;20021;-70
2022/06/19 11:25:40;;;;;;;12.65;6.63;;;13.50;99.90;;;;;;5058977;28;20434;-69
2022/06/19 11:28:13;;;;;;;10.23;6.00;;;13.50;99.90;;;;;;5029956;28;20025;-71
2022/06/19 11:30:47;;;;;;;11.13;5.80;;;13.50;99.90;;;;;;5028688;28;20025;-70
2022/06/19 11:33:20;;;;;;;8.65;5.22;;;13.50;99.90;;;;;;5028058;28;20024;-70
2022/06/19 11:35:56;;;;;;;10.73;6.15;;;13.40;99.90;;;;;;5027793;28;20482;-72
2022/06/19 11:38:38;;;;;;;9.95;5.50;;;13.50;99.90;;;;;;5029447;28;20021;-69
2022/06/19 11:41:26;;;;;;;9.32;6.03;;;13.50;99.90;;;;;;5027618;28;20025;-70
2022/06/19 11:44:23;;;;;;;13.93;6.95;;;13.50;99.90;;;;;;5029828;28;20583;-70
2022/06/19 11:46:54;;;;;;;9.43;6.25;;;13.50;99.90;;;;;;5027644;28;20041;-68
2022/06/19 11:49:36;;;;;;;14.77;6.78;;;13.40;99.90;;;;;;5033361;28;20013;-71
2022/06/19 11:52:19;;;;;;;11.13;5.68;;;13.40;99.90;;;;;;5028312;28;20034;-72
2022/06/19 11:54:49;;;;;;;16.30;6.07;;;13.30;99.90;;;;;;5029610;28;20695;-71
2022/06/19 11:57:27;;;;;;;14.60;6.05;;;13.30;99.90;;;;;;5029780;28;20034;-69
2022/06/19 11:59:57;;;;;;;9.82;5.97;;;13.30;99.90;;;;;;5029796;28;20048;-69
2022/06/19 12:02:40;;;;;;;9.07;5.80;;;13.20;99.90;;;;;;5029681;28;20021;-69
2022/06/19 12:05:18;;;;;;;;;;;13.20;99.90;;;;;;5026096;28;20033;-71
2022/06/19 12:07:45;;;;;;;27.98;20.25;;;13.20;99.90;;;;;;5027449;28;19913;-69
2022/06/19 12:10:15;;;;;;;10.55;8.07;;;13.30;99.90;;;;;;5035027;28;20021;-71
2022/06/19 12:12:54;;;;;;;12.23;6.05;;;13.20;99.90;;;;;;5033660;28;20049;-69
2022/06/19 12:15:31;;;;;;;9.95;5.88;;;13.10;99.90;;;;;;5034479;28;20021;-69
2022/06/19 12:18:02;;;;;;;12.25;7.53;;;13.20;99.90;;;;;;5032790;28;20021;-69
2022/06/19 12:20:33;;;;;;;10.35;6.95;;;13.20;99.90;;;;;;5036348;28;20021;-69
2022/06/19 12:23:21;;;;;;;11.10;7.22;;;13.20;99.90;;;;;;5035700;28;20017;-70
2022/06/19 12:26:03;;;;;;;12.23;7.70;;;13.10;99.90;;;;;;5066084;28;20026;-70
2022/06/19 12:28:50;;;;;;;12.30;7.85;;;13.10;99.90;;;;;;5036262;28;20497;-71
2022/06/19 12:31:25;;;;;;;14.43;8.23;;;13.10;99.90;;;;;;5034470;28;20061;-70
2022/06/19 12:33:59;;;;;;;13.32;8.55;;;13.10;99.90;;;;;;5037266;28;20079;-69
2022/06/19 12:36:36;;;;;;;15.73;8.32;;;13.20;99.90;;;;;;5034315;28;20025;-71
2022/06/19 12:39:13;;;;;;;15.13;9.23;;;13.10;99.90;;;;;;5035692;28;20032;-69
2022/06/19 12:42:10;;;;;;;12.93;8.65;;;13.10;99.90;;;;;;5036123;28;20018;-70
2022/06/19 12:44:55;;;;;;;12.02;7.55;;;13.10;99.90;;;;;;5032370;28;20026;-72
2022/06/19 12:47:40;;;;;;;12.05;8.15;;;13.20;99.90;;;;;;5031809;28;20155;-71
2022/06/19 12:50:49;;;;;;;12.13;8.38;;;13.20;99.90;;;;;;5032860;28;20117;-69
2022/06/19 12:53:52;;;;;;;14.30;8.55;;;13.10;99.90;;;;;;5042860;28;20115;-71
2022/06/19 12:56:42;;;;;;;11.05;7.72;;;13.20;99.90;;;;;;5040961;28;20044;-70
2022/06/19 12:59:34;;;;;;;12.38;8.63;;;13.20;99.90;;;;;;5034323;28;20477;-71
2022/06/19 13:02:33;;;;;;;13.70;8.48;;;13.20;99.90;;;;;;5034769;28;20021;-69
2022/06/19 13:05:24;;;;;;;12.52;8.35;;;13.20;99.90;;;;;;5033971;28;20068;-70
2022/06/19 13:07:54;;;;;;;15.18;9.27;;;13.20;99.90;;;;;;5032934;28;20040;-68
2022/06/19 13:10:33;;;;;;;14.88;8.30;;;13.20;99.90;;;;;;5035878;28;20029;-72
2022/06/19 13:13:22;;;;;;;14.30;8.90;;;13.20;99.90;;;;;;5033306;28;20033;-70
2022/06/19 13:16:01;;;;;;;9.57;8.00;;;13.10;99.90;;;;;;5035045;28;20026;-69
2022/06/19 13:19:06;;;;;;;15.82;9.02;;;13.10;99.90;;;;;;5044537;28;20120;-68
2022/06/19 13:22:06;;;;;;;11.98;8.85;;;13.10;99.90;;;;;;5026285;28;20035;-69
2022/06/19 13:24:36;;;;;;;12.85;9.15;;;13.00;99.90;;;;;;5032269;28;20023;-69
2022/06/19 13:27:42;;;;;;;13.88;9.48;;;13.00;99.90;;;;;;5032229;28;20069;-69
2022/06/19 13:30:15;;;;;;;12.13;8.93;;;13.00;99.90;;;;;;5027938;28;20384;-69